Time;durP1;ratioP1;P1;durP2;ratioP2;P2;SDS_P1;SDS_P2;PMS_P1;PMS_P2;Temp;Humidity;BMP_temperature;BMP_pressure;BME280_temperature;BME280_humidity;BME280_pressure;Samples;Min_cycle;Max_cycle;Signal;HPM_P1;HPM_P2
2023/06/06 00:00:09;;;;;;;3.25;2.80;;;24.00;45.70;;;;;;4991412;28;86935;-88
2023/06/06 00:02:42;;;;;;;3.05;2.83;;;24.00;45.50;;;;;;4982638;28;88829;-90
2023/06/06 00:05:08;;;;;;;3.50;2.72;;;24.00;45.60;;;;;;4990954;28;86204;-91
2023/06/06 00:07:35;;;;;;;3.08;2.78;;;24.10;45.50;;;;;;4990601;28;86693;-88
2023/06/06 00:10:02;;;;;;;2.88;2.40;;;24.00;45.60;;;;;;4985238;28;89112;-88
2023/06/06 00:12:28;;;;;;;3.17;2.50;;;24.00;45.70;;;;;;4992064;28;86331;-91
2023/06/06 00:14:56;;;;;;;2.58;2.38;;;24.00;45.70;;;;;;4992546;28;86717;-87
2023/06/06 00:17:22;;;;;;;3.20;2.28;;;24.00;45.60;;;;;;4990716;28;87447;-91
2023/06/06 00:19:50;;;;;;;2.58;2.38;;;24.00;45.70;;;;;;4991425;28;86671;-91
2023/06/06 00:22:16;;;;;;;2.45;2.25;;;24.00;45.60;;;;;;4992043;28;86475;-91
2023/06/06 00:24:41;;;;;;;3.55;2.78;;;24.00;45.70;;;;;;4989443;28;86927;-92
2023/06/06 00:27:07;;;;;;;2.63;2.20;;;24.00;45.80;;;;;;4992027;28;85860;-90
2023/06/06 00:29:32;;;;;;;2.13;1.92;;;24.00;45.60;;;;;;4991827;28;86513;-90
2023/06/06 00:31:58;;;;;;;2.33;2.13;;;24.00;45.70;;;;;;4983960;28;87611;-92
2023/06/06 00:34:24;;;;;;;2.47;2.13;;;24.00;45.50;;;;;;4993020;28;86407;-92
2023/06/06 00:36:49;;;;;;;3.65;2.17;;;24.00;45.60;;;;;;4991991;28;85741;-88
2023/06/06 00:39:15;;;;;;;2.25;2.05;;;24.00;45.80;;;;;;4993157;28;89259;-90
2023/06/06 00:41:41;;;;;;;2.58;2.20;;;24.00;45.80;;;;;;4994785;28;86914;-89
2023/06/06 00:44:06;;;;;;;2.30;2.10;;;24.00;45.70;;;;;;4994964;28;86760;-89
2023/06/06 00:46:32;;;;;;;2.33;2.13;;;24.00;46.00;;;;;;4993881;28;86116;-89
2023/06/06 00:48:58;;;;;;;3.65;2.50;;;24.00;46.10;;;;;;4996292;28;87016;-91
2023/06/06 00:51:25;;;;;;;2.38;2.17;;;24.00;46.00;;;;;;4994602;28;86225;-91
2023/06/06 00:53:51;;;;;;;2.47;2.28;;;24.00;46.10;;;;;;4995178;28;86833;-92
2023/06/06 00:56:19;;;;;;;3.60;2.60;;;24.00;46.10;;;;;;4994296;28;86210;-90
2023/06/06 00:58:45;;;;;;;2.75;2.05;;;24.00;46.20;;;;;;4995057;28;87460;-86
2023/06/06 01:01:11;;;;;;;2.65;2.40;;;24.00;46.20;;;;;;4992644;28;87630;-91
2023/06/06 01:03:40;;;;;;;2.80;2.60;;;23.90;46.20;;;;;;4994094;28;86769;-91
2023/06/06 01:06:06;;;;;;;;;;;23.90;46.10;;;;;;4986518;28;87487;-91
2023/06/06 01:08:32;;;;;;;3.15;2.55;;;24.00;46.20;;;;;;4995581;28;87358;-92
2023/06/06 01:11:06;;;;;;;2.72;2.42;;;23.90;46.20;;;;;;4992422;28;89838;-90
2023/06/06 01:14:11;;;;;;;2.92;2.38;;;23.90;46.20;;;;;;4992512;28;88733;-90
2023/06/06 01:16:40;;;;;;;2.40;2.20;;;23.90;46.40;;;;;;4993191;28;87629;-90
2023/06/06 01:19:11;;;;;;;3.70;2.78;;;23.90;46.30;;;;;;4994252;28;87765;-89
2023/06/06 01:21:44;;;;;;;3.13;2.22;;;23.90;46.30;;;;;;4964643;28;89254;-91
2023/06/06 01:24:10;;;;;;;2.45;2.25;;;23.90;46.40;;;;;;4971980;28;87594;-89
2023/06/06 01:26:35;;;;;;;3.28;2.03;;;23.90;46.40;;;;;;4973258;28;87764;-88
2023/06/06 01:29:01;;;;;;;2.50;2.30;;;23.90;46.40;;;;;;4972268;28;88693;-92
2023/06/06 01:31:35;;;;;;;2.45;2.03;;;23.90;46.50;;;;;;4973003;28;88106;-89
2023/06/06 01:34:08;;;;;;;2.42;2.15;;;23.90;46.40;;;;;;4973434;28;87962;-89
2023/06/06 01:37:10;;;;;;;2.47;2.28;;;23.90;46.50;;;;;;4972148;28;88309;-86
2023/06/06 01:39:40;;;;;;;2.50;2.30;;;23.90;46.50;;;;;;4969629;28;87608;-91
2023/06/06 01:42:07;;;;;;;2.45;2.22;;;23.90;46.50;;;;;;4971407;28;88057;-90
2023/06/06 01:44:34;;;;;;;2.78;1.98;;;23.80;46.40;;;;;;4972764;28;87613;-92
2023/06/06 01:47:01;;;;;;;2.95;2.05;;;23.90;46.50;;;;;;4970961;28;87374;-89
2023/06/06 01:49:27;;;;;;;4.20;2.45;;;23.90;46.50;;;;;;4971486;28;87783;-89
2023/06/06 01:51:54;;;;;;;2.40;2.20;;;23.80;46.40;;;;;;4970605;28;87693;-85
2023/06/06 01:54:20;;;;;;;2.50;2.30;;;23.80;47.10;;;;;;4972498;28;88220;-89
2023/06/06 01:56:45;;;;;;;2.63;2.40;;;23.90;46.60;;;;;;4971629;28;87834;-90
2023/06/06 01:59:11;;;;;;;2.42;2.22;;;23.80;46.50;;;;;;4972824;28;87104;-92
2023/06/06 02:01:37;;;;;;;2.70;2.40;;;23.80;46.50;;;;;;4972126;28;89743;-92
2023/06/06 02:04:02;;;;;;;2.22;1.92;;;23.90;46.50;;;;;;4972442;28;88520;-91
2023/06/06 02:06:29;;;;;;;2.25;2.05;;;23.90;46.50;;;;;;4973103;28;87608;-91
2023/06/06 02:08:55;;;;;;;2.45;2.25;;;23.80;46.30;;;;;;4972008;28;87712;-91
2023/06/06 02:11:23;;;;;;;2.58;2.28;;;23.80;46.50;;;;;;4964603;28;89642;-92
2023/06/06 02:13:50;;;;;;;2.08;1.90;;;23.80;46.50;;;;;;4972167;28;87575;-92
2023/06/06 02:16:17;;;;;;;3.05;2.55;;;23.80;46.60;;;;;;4972104;28;87641;-92
2023/06/06 02:18:44;;;;;;;3.00;2.10;;;23.80;46.50;;;;;;4972268;28;86524;-90
2023/06/06 02:21:12;;;;;;;2.83;2.53;;;23.80;46.70;;;;;;4961994;28;90202;-85
2023/06/06 02:23:37;;;;;;;3.53;2.10;;;23.80;46.70;;;;;;4972247;28;87377;-90
2023/06/06 02:26:03;;;;;;;2.30;2.08;;;23.80;46.60;;;;;;4971106;28;88160;-91
2023/06/06 02:28:30;;;;;;;2.45;2.22;;;23.80;46.50;;;;;;4972000;28;87047;-92
2023/06/06 02:30:56;;;;;;;2.30;2.10;;;23.80;46.60;;;;;;4965292;28;90968;-90
2023/06/06 02:33:22;;;;;;;2.35;2.15;;;23.80;46.50;;;;;;4972172;28;87971;-91
2023/06/06 02:35:47;;;;;;;2.22;2.05;;;23.80;46.60;;;;;;4972604;28;87681;-91
2023/06/06 02:38:13;;;;;;;2.67;2.47;;;23.80;46.60;;;;;;4971901;28;87621;-92
2023/06/06 02:40:39;;;;;;;2.20;2.03;;;23.80;46.70;;;;;;4962329;28;91673;-92
2023/06/06 02:43:04;;;;;;;2.50;2.20;;;23.70;46.60;;;;;;4963903;28;89055;-90
2023/06/06 02:45:30;;;;;;;2.38;2.17;;;23.80;46.70;;;;;;4970409;28;87004;-90
2023/06/06 02:47:56;;;;;;;2.33;2.13;;;23.70;46.70;;;;;;4970309;28;87606;-92
2023/06/06 02:50:21;;;;;;;2.20;2.00;;;23.70;46.60;;;;;;4971819;28;89548;-90
2023/06/06 02:52:47;;;;;;;2.67;2.15;;;23.80;46.70;;;;;;4971536;28;89122;-89
2023/06/06 02:55:13;;;;;;;2.40;2.20;;;23.70;46.70;;;;;;4972647;28;87506;-87
2023/06/06 02:57:39;;;;;;;2.63;2.40;;;23.70;46.60;;;;;;4971193;28;87395;-91
2023/06/06 03:00:08;;;;;;;2.50;2.30;;;23.70;46.70;;;;;;4971193;28;88335;-92
2023/06/06 03:02:34;;;;;;;;;;;23.70;46.60;;;;;;4971437;28;88321;-88
2023/06/06 03:05:02;;;;;;;2.20;2.00;;;23.70;46.70;;;;;;4971780;28;87889;-91
2023/06/06 03:07:27;;;;;;;1.98;1.88;;;23.70;47.50;;;;;;4971456;28;87716;-88
2023/06/06 03:09:53;;;;;;;2.40;2.20;;;23.70;46.90;;;;;;4971598;28;87423;-91
2023/06/06 03:12:18;;;;;;;2.63;2.42;;;23.70;46.90;;;;;;4970543;28;87597;-89
2023/06/06 03:14:44;;;;;;;1.98;1.88;;;23.70;46.90;;;;;;4970555;28;88715;-91
2023/06/06 03:17:10;;;;;;;2.80;2.08;;;23.70;46.80;;;;;;4969200;28;89313;-90
2023/06/06 03:19:35;;;;;;;2.47;2.28;;;23.70;47.10;;;;;;4971591;28;88565;-91
2023/06/06 03:22:01;;;;;;;2.80;2.47;;;23.70;47.00;;;;;;4970769;28;88062;-92
2023/06/06 03:24:29;;;;;;;3.60;2.33;;;23.70;46.90;;;;;;4985806;28;87301;-91
2023/06/06 03:26:55;;;;;;;2.58;2.15;;;23.70;46.80;;;;;;4964072;28;89235;-91
2023/06/06 03:29:21;;;;;;;2.42;2.22;;;23.70;47.00;;;;;;4963295;28;91012;-89
2023/06/06 03:31:50;;;;;;;2.38;2.13;;;23.70;46.90;;;;;;4961806;28;90527;-90
2023/06/06 03:34:16;;;;;;;2.40;2.20;;;23.70;47.10;;;;;;4971582;28;87173;-90
2023/06/06 03:36:41;;;;;;;2.35;2.15;;;23.70;46.90;;;;;;4971347;28;87496;-87
2023/06/06 03:39:07;;;;;;;2.22;2.05;;;23.70;47.10;;;;;;4970621;28;89488;-88
2023/06/06 03:41:33;;;;;;;2.20;2.00;;;23.70;47.10;;;;;;4970810;28;88710;-92
2023/06/06 03:44:00;;;;;;;2.22;2.00;;;23.70;47.00;;;;;;4970733;28;88321;-88
2023/06/06 03:46:25;;;;;;;2.17;1.98;;;23.60;46.70;;;;;;4970829;28;86982;-90
2023/06/06 03:48:51;;;;;;;2.42;2.22;;;23.60;47.10;;;;;;4969311;28;97135;-94
2023/06/06 03:51:17;;;;;;;2.42;2.13;;;23.60;47.20;;;;;;4971782;28;87636;-89
2023/06/06 03:53:43;;;;;;;2.40;2.20;;;23.60;47.00;;;;;;4971017;28;87618;-91
2023/06/06 03:56:08;;;;;;;2.60;2.40;;;23.70;47.80;;;;;;4971092;28;87442;-91
2023/06/06 03:58:35;;;;;;;2.28;2.08;;;23.60;47.10;;;;;;4971481;28;87838;-90
2023/06/06 04:01:01;;;;;;;2.28;2.08;;;23.70;47.10;;;;;;4967755;28;88100;-92
2023/06/06 04:03:27;;;;;;;2.42;2.22;;;23.70;47.30;;;;;;4971255;28;89204;-88
2023/06/06 04:05:53;;;;;;;2.30;2.10;;;23.60;47.20;;;;;;4971047;28;87347;-91
2023/06/06 04:08:19;;;;;;;1.80;1.70;;;23.60;47.90;;;;;;4970536;28;87712;-92
2023/06/06 04:10:45;;;;;;;2.50;2.30;;;23.60;47.20;;;;;;4970802;28;87673;-87
2023/06/06 04:13:11;;;;;;;2.60;2.03;;;23.60;47.20;;;;;;4971651;28;87896;-89
2023/06/06 04:15:36;;;;;;;2.45;2.25;;;23.60;47.10;;;;;;4969231;28;88050;-89
2023/06/06 04:18:03;;;;;;;2.50;2.30;;;23.60;47.30;;;;;;4961370;28;88993;-91
2023/06/06 04:20:32;;;;;;;2.58;2.38;;;23.60;47.10;;;;;;4970290;28;87182;-91
2023/06/06 04:23:00;;;;;;;2.13;1.92;;;23.70;47.10;;;;;;4970130;28;87482;-88
2023/06/06 04:25:26;;;;;;;2.47;2.28;;;23.70;47.20;;;;;;4961175;28;88235;-90
2023/06/06 04:27:52;;;;;;;2.60;2.40;;;23.70;47.20;;;;;;4989508;28;93181;-91
2023/06/06 04:30:22;;;;;;;2.25;2.00;;;23.70;47.20;;;;;;4977040;28;88684;-90
2023/06/06 04:32:53;;;;;;;2.20;2.00;;;23.70;47.10;;;;;;4970218;28;87255;-91
2023/06/06 04:35:19;;;;;;;2.10;1.90;;;23.70;47.10;;;;;;4971118;28;87356;-92
2023/06/06 04:37:47;;;;;;;3.30;1.80;;;23.70;47.10;;;;;;4969615;28;88718;-91
2023/06/06 04:40:14;;;;;;;2.92;2.63;;;23.70;46.90;;;;;;4970871;28;87869;-91
2023/06/06 04:42:40;;;;;;;2.25;2.05;;;23.70;47.00;;;;;;4968537;28;88518;-91
2023/06/06 04:45:07;;;;;;;2.60;2.40;;;23.70;46.80;;;;;;4970835;28;87065;-91
2023/06/06 04:47:35;;;;;;;2.88;2.50;;;23.70;46.90;;;;;;4963496;28;90462;-91
2023/06/06 04:50:00;;;;;;;2.60;2.30;;;23.80;47.00;;;;;;4970411;28;88309;-89
2023/06/06 04:52:28;;;;;;;2.55;2.22;;;23.70;46.90;;;;;;4968424;28;88155;-83
2023/06/06 04:54:57;;;;;;;2.63;2.35;;;23.80;47.00;;;;;;4970575;28;87414;-90
2023/06/06 04:57:23;;;;;;;;;;;23.80;47.20;;;;;;4970450;28;88881;-84
2023/06/06 04:59:52;;;;;;;3.50;2.00;;;23.70;46.80;;;;;;4972480;28;87806;-90
2023/06/06 05:02:21;;;;;;;1.70;1.60;;;23.80;46.80;;;;;;4970704;28;87404;-89
2023/06/06 05:04:54;;;;;;;2.22;2.03;;;23.80;46.80;;;;;;4969999;28;87854;-91
2023/06/06 05:07:24;;;;;;;2.20;2.00;;;23.90;46.90;;;;;;4970806;28;87948;-92
2023/06/06 05:09:50;;;;;;;1.95;1.85;;;23.80;46.70;;;;;;4969383;28;89004;-91
2023/06/06 05:12:16;;;;;;;2.42;2.00;;;23.90;46.80;;;;;;4971544;28;92254;-92
2023/06/06 05:14:42;;;;;;;2.05;1.95;;;23.90;46.60;;;;;;4969475;28;89021;-88
2023/06/06 05:17:07;;;;;;;2.17;1.98;;;23.90;46.90;;;;;;4966855;28;90807;-89
2023/06/06 05:19:34;;;;;;;1.90;1.80;;;23.90;46.80;;;;;;4960450;28;92259;-86
2023/06/06 05:21:59;;;;;;;2.17;1.98;;;23.90;46.80;;;;;;4971347;28;86929;-93
2023/06/06 05:24:25;;;;;;;2.50;2.30;;;24.00;46.80;;;;;;4962402;28;88650;-91
2023/06/06 05:26:50;;;;;;;2.10;1.90;;;24.00;46.80;;;;;;4964014;28;87915;-91
2023/06/06 05:29:16;;;;;;;2.30;2.10;;;24.00;46.60;;;;;;4971916;28;87486;-91
2023/06/06 05:31:41;;;;;;;2.38;2.17;;;24.00;46.80;;;;;;4973262;28;87256;-91
2023/06/06 05:34:07;;;;;;;2.47;2.17;;;24.10;47.00;;;;;;4967823;28;89672;-92
2023/06/06 05:36:33;;;;;;;2.17;2.00;;;24.00;46.80;;;;;;4973557;28;87816;-92
2023/06/06 05:39:00;;;;;;;1.90;1.80;;;24.10;46.80;;;;;;4973460;28;87900;-91
2023/06/06 05:41:26;;;;;;;2.50;2.30;;;24.10;46.90;;;;;;4972299;28;87961;-90
2023/06/06 05:43:52;;;;;;;4.25;2.75;;;24.10;46.90;;;;;;4968402;28;87965;-87
2023/06/06 05:46:18;;;;;;;4.13;2.80;;;24.10;46.60;;;;;;4971670;28;87436;-89
2023/06/06 05:48:44;;;;;;;4.95;2.72;;;24.20;46.20;;;;;;4969089;28;87506;-89
2023/06/06 05:51:10;;;;;;;6.07;3.00;;;24.20;46.60;;;;;;4967842;28;87709;-88
2023/06/06 05:53:44;;;;;;;2.75;2.50;;;24.10;46.20;;;;;;4966731;28;87716;-88
2023/06/06 05:56:11;;;;;;;14.95;5.53;;;24.10;46.30;;;;;;4964188;28;88067;-89
2023/06/06 05:58:36;;;;;;;9.00;3.90;;;24.20;46.50;;;;;;4965407;28;90539;-88
2023/06/06 06:01:02;;;;;;;8.75;4.15;;;24.30;46.70;;;;;;4958044;28;87122;-90
2023/06/06 06:03:28;;;;;;;12.65;4.82;;;24.30;46.80;;;;;;4967032;28;88022;-88
2023/06/06 06:06:02;;;;;;;16.98;4.63;;;24.30;46.60;;;;;;4967308;28;89269;-88
2023/06/06 06:08:28;;;;;;;16.25;5.30;;;24.20;46.70;;;;;;4965961;28;87782;-89
2023/06/06 06:10:54;;;;;;;15.77;5.68;;;24.30;46.90;;;;;;4968597;28;87425;-89
2023/06/06 06:13:19;;;;;;;11.95;4.22;;;24.20;46.70;;;;;;4967662;28;89303;-87
2023/06/06 06:15:45;;;;;;;12.50;4.82;;;24.20;46.90;;;;;;4964284;28;88264;-86
2023/06/06 06:18:11;;;;;;;13.50;4.55;;;24.20;46.80;;;;;;4955950;28;89831;-88
2023/06/06 06:20:36;;;;;;;9.80;5.25;;;24.20;46.80;;;;;;4964917;28;87136;-88
2023/06/06 06:23:02;;;;;;;17.10;4.97;;;24.20;46.90;;;;;;4951207;28;89281;-86
2023/06/06 06:25:28;;;;;;;15.23;6.50;;;24.20;47.00;;;;;;4964123;28;88789;-86
2023/06/06 06:27:55;;;;;;;14.45;7.53;;;24.30;46.40;;;;;;4962982;28;90634;-86
2023/06/06 06:30:21;;;;;;;12.20;6.93;;;24.00;45.50;;;;;;4961828;28;88044;-85
2023/06/06 06:32:47;;;;;;;13.20;7.30;;;24.00;46.10;;;;;;4964427;28;87373;-86
2023/06/06 06:35:12;;;;;;;12.68;6.95;;;23.90;45.50;;;;;;4955327;28;88964;-86
2023/06/06 06:37:39;;;;;;;12.05;7.18;;;23.90;45.60;;;;;;4963179;28;87828;-87
2023/06/06 06:40:09;;;;;;;9.23;7.10;;;23.70;45.50;;;;;;4963943;28;87418;-86
2023/06/06 06:42:39;;;;;;;9.95;6.97;;;23.80;45.50;;;;;;4963760;28;87596;-86
2023/06/06 06:45:11;;;;;;;10.25;5.90;;;23.80;45.50;;;;;;4964199;28;88017;-85
2023/06/06 06:47:36;;;;;;;8.65;6.32;;;23.80;45.70;;;;;;4978449;28;90638;-87
2023/06/06 06:50:04;;;;;;;10.60;6.18;;;23.80;45.30;;;;;;4968306;28;87651;-85
2023/06/06 06:52:33;;;;;;;10.77;5.60;;;23.90;45.40;;;;;;4963096;28;87477;-85
2023/06/06 06:55:01;;;;;;;9.55;6.43;;;23.90;45.30;;;;;;4963598;28;90501;-86
2023/06/06 06:57:28;;;;;;;12.90;7.03;;;23.90;45.50;;;;;;4960818;28;92313;-85
2023/06/06 06:59:55;;;;;;;8.05;6.05;;;23.80;45.40;;;;;;4963645;28;87763;-86
2023/06/06 07:02:23;;;;;;;14.02;7.25;;;23.80;45.50;;;;;;4962503;28;87813;-85
2023/06/06 07:04:49;;;;;;;10.82;5.95;;;23.70;45.90;;;;;;4961847;28;87894;-87
2023/06/06 07:07:15;;;;;;;14.95;6.85;;;23.70;45.90;;;;;;4966027;28;88237;-88
2023/06/06 07:09:43;;;;;;;11.27;6.03;;;23.70;45.90;;;;;;4963726;28;87678;-87
2023/06/06 07:12:10;;;;;;;8.70;5.75;;;23.80;46.20;;;;;;4965611;28;86448;-85
2023/06/06 07:14:36;;;;;;;11.05;5.50;;;23.80;46.40;;;;;;4963632;28;88060;-84
2023/06/06 07:17:02;;;;;;;11.00;6.28;;;23.90;47.30;;;;;;4962654;28;87658;-85
2023/06/06 07:19:28;;;;;;;9.38;6.28;;;23.80;49.20;;;;;;4952750;28;88913;-85
2023/06/06 07:21:56;;;;;;;9.77;6.35;;;23.80;49.90;;;;;;4961361;28;89333;-86
2023/06/06 07:24:22;;;;;;;11.35;6.95;;;23.80;49.50;;;;;;4962756;28;87768;-85
2023/06/06 07:26:48;;;;;;;10.65;6.75;;;23.80;49.50;;;;;;4961317;28;87322;-85
2023/06/06 07:29:13;;;;;;;14.40;7.13;;;23.80;49.10;;;;;;4962556;28;87706;-86
2023/06/06 07:31:39;;;;;;;11.02;6.70;;;23.80;48.80;;;;;;4963382;28;87596;-86
2023/06/06 07:34:05;;;;;;;11.20;5.93;;;24.00;48.80;;;;;;4963372;28;90714;-85
2023/06/06 07:36:30;;;;;;;12.50;6.10;;;24.10;49.20;;;;;;4961487;28;88326;-84
2023/06/06 07:38:57;;;;;;;8.95;6.45;;;24.20;48.50;;;;;;4967324;28;89229;-87
2023/06/06 07:41:26;;;;;;;8.20;6.05;;;24.30;48.20;;;;;;4985341;28;87387;-88
2023/06/06 07:43:52;;;;;;;10.90;5.53;;;24.30;47.60;;;;;;4987545;28;89243;-85
2023/06/06 07:46:17;;;;;;;11.80;7.10;;;24.40;47.60;;;;;;4984750;28;89179;-88
2023/06/06 07:48:43;;;;;;;12.88;6.78;;;24.30;46.70;;;;;;4976925;28;87651;-87
2023/06/06 07:51:09;;;;;;;10.23;6.20;;;24.30;54.50;;;;;;4986309;28;87567;-88
2023/06/06 07:53:34;;;;;;;8.27;5.72;;;24.20;56.40;;;;;;4985350;28;87710;-83
2023/06/06 07:56:00;;;;;;;12.40;7.13;;;24.10;53.20;;;;;;4975551;28;89900;-86
2023/06/06 07:58:40;;;;;;;11.73;5.80;;;24.10;51.30;;;;;;4986746;28;88279;-83
2023/06/06 08:01:07;;;;;;;10.90;5.53;;;24.10;50.00;;;;;;4962291;28;91292;-86
2023/06/06 08:03:32;;;;;;;10.63;6.00;;;24.00;48.80;;;;;;4964920;28;87885;-83
2023/06/06 08:05:58;;;;;;;13.48;6.53;;;24.00;48.80;;;;;;4966940;28;87546;-89
2023/06/06 08:08:26;;;;;;;26.17;8.75;;;24.00;48.80;;;;;;4964085;28;88218;-86
2023/06/06 08:10:52;;;;;;;18.83;7.53;;;24.10;48.70;;;;;;4965789;28;87512;-88
2023/06/06 08:13:19;;;;;;;21.80;7.40;;;24.10;48.40;;;;;;4966628;28;87684;-88
2023/06/06 08:15:45;;;;;;;15.77;6.90;;;24.20;48.40;;;;;;4964293;28;89141;-86
2023/06/06 08:18:13;;;;;;;17.80;7.35;;;24.20;47.80;;;;;;4962131;28;88054;-86
2023/06/06 08:20:38;;;;;;;14.05;6.50;;;24.20;47.70;;;;;;4964217;28;87586;-87
2023/06/06 08:23:04;;;;;;;20.55;6.57;;;24.20;47.80;;;;;;4963474;28;88590;-86
2023/06/06 08:25:29;;;;;;;16.05;7.40;;;24.10;47.80;;;;;;4954672;28;90128;-87
2023/06/06 08:27:58;;;;;;;13.60;7.00;;;24.20;47.80;;;;;;4955323;28;87635;-88
2023/06/06 08:30:23;;;;;;;19.25;5.95;;;24.20;47.90;;;;;;4964873;28;87522;-89
2023/06/06 08:32:50;;;;;;;14.35;6.50;;;24.20;47.90;;;;;;4962979;28;89796;-85
2023/06/06 08:35:16;;;;;;;18.55;7.00;;;24.20;47.80;;;;;;4964186;28;88191;-86
2023/06/06 08:37:42;;;;;;;16.55;6.57;;;24.20;47.90;;;;;;4965093;28;87480;-86
2023/06/06 08:40:09;;;;;;;13.85;5.85;;;24.10;47.70;;;;;;4965112;28;87263;-88
2023/06/06 08:42:40;;;;;;;13.20;6.35;;;24.10;47.60;;;;;;4964749;28;88101;-84
2023/06/06 08:45:07;;;;;;;10.77;5.65;;;24.20;47.80;;;;;;4963926;28;87413;-89
2023/06/06 08:47:34;;;;;;;11.13;5.93;;;24.20;47.90;;;;;;4963159;28;87984;-84
2023/06/06 08:50:01;;;;;;;14.35;6.03;;;24.20;47.70;;;;;;4954733;28;89849;-85
2023/06/06 08:52:28;;;;;;;10.88;5.50;;;24.20;47.60;;;;;;4962196;28;89783;-83
2023/06/06 08:54:54;;;;;;;11.02;5.85;;;24.20;47.40;;;;;;4964634;28;88182;-87
2023/06/06 08:57:20;;;;;;;9.57;5.30;;;24.30;47.60;;;;;;4962856;28;88511;-86
2023/06/06 08:59:47;;;;;;;9.50;5.03;;;24.30;47.60;;;;;;4963053;28;89848;-87
2023/06/06 09:02:13;;;;;;;10.43;5.53;;;24.30;47.40;;;;;;4967302;28;88088;-86
2023/06/06 09:04:42;;;;;;;14.35;5.78;;;24.30;48.10;;;;;;4955787;28;90466;-88
2023/06/06 09:07:14;;;;;;;9.63;4.70;;;24.30;47.30;;;;;;4969171;28;87415;-87
2023/06/06 09:09:42;;;;;;;8.45;5.70;;;24.30;47.30;;;;;;4967402;28;87520;-87
2023/06/06 09:12:08;;;;;;;13.48;5.32;;;24.30;47.50;;;;;;4967249;28;88955;-88
2023/06/06 09:14:35;;;;;;;12.30;4.90;;;24.30;47.50;;;;;;4967982;28;87307;-87
2023/06/06 09:17:01;;;;;;;10.45;5.40;;;24.30;47.20;;;;;;4958085;28;87534;-87
2023/06/06 09:19:28;;;;;;;11.52;5.93;;;24.30;47.60;;;;;;4966105;28;87612;-86
2023/06/06 09:21:58;;;;;;;9.45;5.45;;;24.30;47.40;;;;;;4967573;28;90001;-85
2023/06/06 09:24:23;;;;;;;9.82;4.80;;;24.30;47.30;;;;;;4967142;28;88746;-87
2023/06/06 09:26:49;;;;;;;8.63;4.97;;;24.30;48.00;;;;;;4966912;28;87806;-85
2023/06/06 09:29:14;;;;;;;9.13;5.20;;;24.30;47.50;;;;;;4965204;28;88026;-85
2023/06/06 09:31:41;;;;;;;8.80;5.38;;;24.20;47.40;;;;;;4965006;28;87490;-84
2023/06/06 09:34:08;;;;;;;13.05;5.45;;;24.30;47.40;;;;;;4951222;28;87531;-84
2023/06/06 09:36:35;;;;;;;9.98;6.13;;;24.30;47.40;;;;;;4953717;28;87976;-83
2023/06/06 09:39:12;;;;;;;9.23;5.28;;;24.30;47.30;;;;;;4962015;28;87559;-87
2023/06/06 09:41:43;;;;;;;11.75;6.28;;;24.30;47.40;;;;;;4959566;28;88279;-86
2023/06/06 09:44:19;;;;;;;11.75;5.50;;;24.30;47.30;;;;;;4959964;28;87896;-88
2023/06/06 09:46:45;;;;;;;9.15;5.40;;;24.30;47.30;;;;;;4959553;28;88583;-85
2023/06/06 09:49:12;;;;;;;11.85;5.38;;;24.30;47.50;;;;;;4961492;28;88232;-85
2023/06/06 09:51:44;;;;;;;13.15;6.40;;;24.30;47.20;;;;;;4965185;28;87739;-84
2023/06/06 09:54:11;;;;;;;12.88;5.32;;;24.30;47.60;;;;;;4964367;28;88472;-84
2023/06/06 09:56:40;;;;;;;10.50;5.43;;;24.30;47.40;;;;;;4965057;28;87723;-84
2023/06/06 09:59:08;;;;;;;10.15;6.00;;;24.30;47.40;;;;;;4963742;28;87651;-84
2023/06/06 10:01:37;;;;;;;9.93;5.32;;;24.30;47.50;;;;;;4964478;28;87626;-86
2023/06/06 10:04:06;;;;;;;8.68;5.00;;;24.30;47.60;;;;;;4966220;28;87551;-86
2023/06/06 10:06:37;;;;;;;5.53;4.28;;;24.30;47.60;;;;;;4953483;28;87555;-86
2023/06/06 10:09:06;;;;;;;10.50;5.32;;;24.30;47.60;;;;;;4965868;28;87503;-85
2023/06/06 10:11:33;;;;;;;10.40;5.22;;;24.30;47.70;;;;;;4963131;28;88759;-86
2023/06/06 10:13:59;;;;;;;8.23;5.18;;;24.30;47.70;;;;;;4963323;28;89716;-85
2023/06/06 10:16:29;;;;;;;13.88;4.82;;;24.30;47.80;;;;;;4961352;28;86966;-87
2023/06/06 10:18:56;;;;;;;7.88;4.60;;;24.30;47.90;;;;;;4964602;28;91592;-88
2023/06/06 10:21:23;;;;;;;13.50;5.43;;;24.40;47.90;;;;;;4962755;28;90296;-85
2023/06/06 10:23:49;;;;;;;8.68;4.90;;;24.50;48.00;;;;;;4963278;28;88322;-84
2023/06/06 10:26:31;;;;;;;7.70;4.50;;;24.50;48.00;;;;;;4962867;28;87298;-87
2023/06/06 10:29:05;;;;;;;13.13;4.93;;;24.50;47.80;;;;;;4962789;28;86819;-85
2023/06/06 10:31:36;;;;;;;8.77;4.60;;;24.50;47.90;;;;;;4961158;28;89138;-84
2023/06/06 10:34:22;;;;;;;9.48;5.07;;;24.40;48.10;;;;;;4964330;28;89672;-86
2023/06/06 10:36:48;;;;;;;10.65;4.78;;;24.30;48.20;;;;;;4961925;28;88331;-85
2023/06/06 10:39:28;;;;;;;12.43;5.03;;;24.30;48.40;;;;;;4952084;28;87917;-86
2023/06/06 10:42:05;;;;;;;11.55;4.88;;;24.30;48.50;;;;;;4961826;28;89092;-87
2023/06/06 10:44:41;;;;;;;12.10;4.53;;;24.20;48.50;;;;;;4952204;28;90318;-83
2023/06/06 10:47:29;;;;;;;6.78;4.85;;;24.20;48.60;;;;;;4952087;28;87842;-86
2023/06/06 10:52:41;;;;;;;7.32;4.57;;;24.20;48.70;;;;;;4963031;28;88275;-87
2023/06/06 10:55:29;;;;;;;7.18;4.07;;;24.10;48.60;;;;;;4964674;28;87443;-84
2023/06/06 10:58:04;;;;;;;6.38;4.40;;;24.10;48.70;;;;;;4960371;28;87949;-86
2023/06/06 11:00:39;;;;;;;6.00;4.25;;;24.10;48.60;;;;;;4964957;28;87926;-86
2023/06/06 11:03:06;;;;;;;5.90;4.00;;;24.20;48.70;;;;;;4964479;28;88992;-86
2023/06/06 11:05:32;;;;;;;8.32;4.25;;;24.10;48.70;;;;;;4963588;28;88919;-85
2023/06/06 11:08:00;;;;;;;5.13;4.43;;;24.10;48.70;;;;;;4965175;28;87955;-85
2023/06/06 11:10:26;;;;;;;8.60;4.40;;;24.10;48.80;;;;;;4965002;28;87277;-87
2023/06/06 11:12:53;;;;;;;6.90;4.35;;;24.10;48.70;;;;;;4963001;28;92182;-86
2023/06/06 11:15:32;;;;;;;5.90;4.22;;;24.10;48.80;;;;;;4949915;28;87920;-86
2023/06/06 11:18:04;;;;;;;7.18;4.25;;;24.10;48.60;;;;;;4963293;28;87495;-86
2023/06/06 11:20:42;;;;;;;6.25;4.47;;;24.10;48.80;;;;;;4963450;28;87051;-85
2023/06/06 11:23:11;;;;;;;6.45;3.95;;;24.10;48.80;;;;;;4961487;28;90373;-83
2023/06/06 11:25:37;;;;;;;5.97;4.17;;;24.10;48.70;;;;;;4953544;28;91256;-85
2023/06/06 11:28:04;;;;;;;6.05;4.40;;;24.10;48.80;;;;;;4964357;28;88498;-85
2023/06/06 11:30:36;;;;;;;4.78;3.83;;;24.10;48.60;;;;;;4964153;28;87631;-86
2023/06/06 11:33:07;;;;;;;7.55;4.28;;;24.10;48.70;;;;;;4962942;28;88129;-85
2023/06/06 11:35:33;;;;;;;6.30;4.07;;;24.10;48.70;;;;;;4962378;28;87834;-86
2023/06/06 11:37:59;;;;;;;6.82;4.13;;;24.10;48.50;;;;;;4963162;28;87715;-87
2023/06/06 11:40:26;;;;;;;7.30;4.30;;;24.10;48.40;;;;;;4962947;28;88072;-83
2023/06/06 11:42:52;;;;;;;9.95;4.25;;;24.10;48.50;;;;;;4974186;28;96102;-85
2023/06/06 11:45:18;;;;;;;6.63;4.15;;;24.10;48.50;;;;;;4971881;28;90654;-85
2023/06/06 11:47:44;;;;;;;5.10;4.15;;;24.10;48.50;;;;;;4984269;28;87627;-85
2023/06/06 11:50:11;;;;;;;5.22;4.05;;;24.20;48.60;;;;;;4983961;28;88011;-84
2023/06/06 11:53:05;;;;;;;5.90;3.88;;;24.10;48.50;;;;;;4982621;28;88615;-84
2023/06/06 11:55:38;;;;;;;5.18;3.97;;;24.20;48.40;;;;;;4984325;28;89324;-89
2023/06/06 11:58:04;;;;;;;5.53;4.38;;;24.20;48.20;;;;;;4984843;28;86965;-86
2023/06/06 12:00:30;;;;;;;5.90;4.38;;;24.20;48.50;;;;;;4970912;28;89518;-86
2023/06/06 12:02:59;;;;;;;4.43;3.58;;;24.10;48.50;;;;;;4982680;28;87477;-85
2023/06/06 12:05:25;;;;;;;7.40;4.07;;;24.10;48.50;;;;;;4982303;28;87389;-86
2023/06/06 12:07:54;;;;;;;6.80;4.05;;;24.10;48.50;;;;;;4981712;28;87431;-85
2023/06/06 12:10:30;;;;;;;6.50;4.40;;;24.10;48.60;;;;;;4983985;28;87159;-86
2023/06/06 12:12:56;;;;;;;7.25;4.72;;;24.20;48.60;;;;;;4962121;28;93362;-85
2023/06/06 12:15:26;;;;;;;7.03;3.97;;;24.10;48.50;;;;;;4963352;28;88646;-86
2023/06/06 12:17:52;;;;;;;4.90;4.00;;;24.20;48.50;;;;;;4962417;28;88794;-83
2023/06/06 12:20:24;;;;;;;6.07;4.03;;;24.20;49.00;;;;;;4952229;28;88072;-85
2023/06/06 12:22:51;;;;;;;5.35;4.05;;;24.10;48.20;;;;;;4962531;28;88014;-85
2023/06/06 12:25:27;;;;;;;4.88;4.10;;;24.20;48.40;;;;;;4954210;28;89556;-84
2023/06/06 12:27:53;;;;;;;3.92;3.53;;;24.20;48.20;;;;;;4962085;28;87856;-85
2023/06/06 12:30:32;;;;;;;5.13;3.72;;;24.10;48.20;;;;;;4951296;28;90270;-86
2023/06/06 12:33:02;;;;;;;4.97;4.18;;;24.10;48.10;;;;;;4963280;28;88367;-85
2023/06/06 12:35:28;;;;;;;5.57;4.32;;;24.20;48.20;;;;;;4965351;28;88857;-83
2023/06/06 12:38:01;;;;;;;5.40;3.95;;;24.20;48.30;;;;;;4966490;28;87707;-84
2023/06/06 12:40:30;;;;;;;7.68;3.78;;;24.30;48.00;;;;;;4958880;28;89723;-85
2023/06/06 12:43:00;;;;;;;9.43;4.18;;;24.40;47.80;;;;;;4984391;28;93616;-84
2023/06/06 12:45:27;;;;;;;9.63;3.97;;;24.50;47.40;;;;;;4984599;28;88140;-83
2023/06/06 12:48:00;;;;;;;6.07;3.40;;;24.50;47.00;;;;;;4984887;28;87846;-84
2023/06/06 12:50:26;;;;;;;6.63;3.15;;;24.50;45.80;;;;;;4983585;28;87677;-85